KSMO/SMO METAR and TAF weather

Enter ICAO airport designator
Station Type Date Time Source
KSMO METAR 2021/09/23 22:51 UTC NOAA

KSMO 232251Z 24008KT 10SM SCT007 18/16 A2988 RMK AO2 SLP115 T01830156


Station Type Date Time Source
KSMO Decoded METAR 2021/09/23 22:51 UTC NOAA

SANTA MONICA MUNICIPAL AIRPORT , CA, United States (KSMO) 34-01N 118-27W 57M
Sep 23, 2021 - 06:51 PM EDT / 2021.09.23 2251 UTC
Wind: from the WSW (240 degrees) at 9 MPH (8 KT):0
Visibility: 10 mile(s):0
Sky conditions: partly cloudy
Temperature: 64.9 F (18.3 C)
Dew Point: 60.1 F (15.6 C)
Relative Humidity: 84%
Pressure (altimeter): 29.88 in. Hg (1011 hPa)
ob: KSMO 232251Z 24008KT 10SM SCT007 18/16 A2988 RMK AO2 SLP115 T01830156
cycle: 23

Station Type Date Time Source
KSMO TAF 2021/09/23 18:33 UTC NOAA

KSMO 231732Z 2318/2418 17003KT P6SM SKC
FM232000 23008KT P6SM SKC
FM240300 VRB03KT P6SM SKC
FM240600 VRB03KT P6SM OVC008
FM241000 VRB03KT P6SM OVC010

Example: see airport list